sensor_id;sensor_type;location;lat;lon;timestamp;temperature;humidity
530;DHT22;251;48.704;9.210;2023-02-28T00:00:08;-0.30;13.00
530;DHT22;251;48.704;9.210;2023-02-28T00:02:36;-0.80;13.20
530;DHT22;251;48.704;9.210;2023-02-28T00:05:06;-0.80;13.30
530;DHT22;251;48.704;9.210;2023-02-28T00:07:33;-0.50;12.70
530;DHT22;251;48.704;9.210;2023-02-28T00:10:00;-0.50;13.30
530;DHT22;251;48.704;9.210;2023-02-28T00:12:27;-0.50;13.70
530;DHT22;251;48.704;9.210;2023-02-28T00:14:54;-0.60;13.60
530;DHT22;251;48.704;9.210;2023-02-28T00:17:21;-0.60;13.10
530;DHT22;251;48.704;9.210;2023-02-28T00:19:48;-0.50;13.50
530;DHT22;251;48.704;9.210;2023-02-28T00:22:17;-0.50;13.80
530;DHT22;251;48.704;9.210;2023-02-28T00:24:44;-0.70;13.90
530;DHT22;251;48.704;9.210;2023-02-28T00:27:11;-0.60;14.50
530;DHT22;251;48.704;9.210;2023-02-28T00:29:38;-0.50;14.40
530;DHT22;251;48.704;9.210;2023-02-28T00:32:06;-0.50;14.60
530;DHT22;251;48.704;9.210;2023-02-28T00:34:33;-0.70;13.80
530;DHT22;251;48.704;9.210;2023-02-28T00:37:04;-0.50;14.10
530;DHT22;251;48.704;9.210;2023-02-28T00:39:35;-0.50;14.50
530;DHT22;251;48.704;9.210;2023-02-28T00:42:02;-0.60;14.20
530;DHT22;251;48.704;9.210;2023-02-28T00:44:29;-0.60;13.90
530;DHT22;251;48.704;9.210;2023-02-28T00:46:56;-0.60;14.60
530;DHT22;251;48.704;9.210;2023-02-28T00:49:24;-0.80;14.30
530;DHT22;251;48.704;9.210;2023-02-28T00:51:51;-0.90;14.40
530;DHT22;251;48.704;9.210;2023-02-28T00:54:19;-0.50;14.30
530;DHT22;251;48.704;9.210;2023-02-28T00:56:48;-0.80;14.30
530;DHT22;251;48.704;9.210;2023-02-28T00:59:16;-0.70;14.30
530;DHT22;251;48.704;9.210;2023-02-28T01:01:45;-0.70;14.80
530;DHT22;251;48.704;9.210;2023-02-28T01:04:12;-1.00;14.40
530;DHT22;251;48.704;9.210;2023-02-28T01:06:40;-1.00;14.70
530;DHT22;251;48.704;9.210;2023-02-28T01:09:10;-1.10;14.70
530;DHT22;251;48.704;9.210;2023-02-28T01:11:37;-1.10;14.90
530;DHT22;251;48.704;9.210;2023-02-28T01:14:08;-0.70;15.30
530;DHT22;251;48.704;9.210;2023-02-28T01:16:36;-0.70;15.20
530;DHT22;251;48.704;9.210;2023-02-28T01:19:02;-1.10;15.10
530;DHT22;251;48.704;9.210;2023-02-28T01:21:29;-1.00;14.70
530;DHT22;251;48.704;9.210;2023-02-28T01:23:56;-1.00;15.50
530;DHT22;251;48.704;9.210;2023-02-28T01:26:24;-1.00;15.20
530;DHT22;251;48.704;9.210;2023-02-28T01:28:52;-0.70;15.90
530;DHT22;251;48.704;9.210;2023-02-28T01:31:21;-0.70;15.70
530;DHT22;251;48.704;9.210;2023-02-28T01:33:49;-0.90;15.40
530;DHT22;251;48.704;9.210;2023-02-28T01:36:18;-0.80;15.60
530;DHT22;251;48.704;9.210;2023-02-28T01:38:46;-1.10;15.60
530;DHT22;251;48.704;9.210;2023-02-28T01:41:16;-0.90;15.70
530;DHT22;251;48.704;9.210;2023-02-28T01:43:56;-1.00;15.70
530;DHT22;251;48.704;9.210;2023-02-28T01:46:24;-0.80;16.00
530;DHT22;251;48.704;9.210;2023-02-28T01:48:57;-1.00;16.40
530;DHT22;251;48.704;9.210;2023-02-28T01:51:29;-0.80;16.90
530;DHT22;251;48.704;9.210;2023-02-28T01:54:01;-1.30;16.30
530;DHT22;251;48.704;9.210;2023-02-28T01:56:32;-0.80;16.80
530;DHT22;251;48.704;9.210;2023-02-28T01:59:00;-1.20;16.40
530;DHT22;251;48.704;9.210;2023-02-28T02:01:29;-1.10;16.70
530;DHT22;251;48.704;9.210;2023-02-28T02:04:00;-0.80;16.60
530;DHT22;251;48.704;9.210;2023-02-28T02:06:31;-1.10;17.10
530;DHT22;251;48.704;9.210;2023-02-28T02:09:00;-1.30;16.60
530;DHT22;251;48.704;9.210;2023-02-28T02:11:28;-1.10;17.00
530;DHT22;251;48.704;9.210;2023-02-28T02:14:12;-1.30;16.70
530;DHT22;251;48.704;9.210;2023-02-28T02:16:56;-1.10;16.90
530;DHT22;251;48.704;9.210;2023-02-28T02:20:00;-1.10;17.20
530;DHT22;251;48.704;9.210;2023-02-28T02:22:43;-1.30;17.20
530;DHT22;251;48.704;9.210;2023-02-28T02:25:24;-0.90;17.70
530;DHT22;251;48.704;9.210;2023-02-28T02:31:20;-1.10;17.70
530;DHT22;251;48.704;9.210;2023-02-28T02:36:58;-1.30;17.10
530;DHT22;251;48.704;9.210;2023-02-28T02:39:31;-1.10;17.40
530;DHT22;251;48.704;9.210;2023-02-28T02:42:01;-1.30;17.20
530;DHT22;251;48.704;9.210;2023-02-28T02:44:33;-1.20;17.50
530;DHT22;251;48.704;9.210;2023-02-28T02:47:05;-1.30;17.70
530;DHT22;251;48.704;9.210;2023-02-28T02:49:35;-0.90;18.50
530;DHT22;251;48.704;9.210;2023-02-28T02:52:06;-1.30;18.50
530;DHT22;251;48.704;9.210;2023-02-28T02:54:37;-1.20;18.40
530;DHT22;251;48.704;9.210;2023-02-28T02:57:08;-1.30;17.30
530;DHT22;251;48.704;9.210;2023-02-28T02:59:38;-0.90;18.10
530;DHT22;251;48.704;9.210;2023-02-28T03:02:07;-1.30;17.90
530;DHT22;251;48.704;9.210;2023-02-28T03:04:38;-1.30;17.70
530;DHT22;251;48.704;9.210;2023-02-28T03:07:08;-1.30;17.90
530;DHT22;251;48.704;9.210;2023-02-28T03:09:35;-1.00;18.20
530;DHT22;251;48.704;9.210;2023-02-28T03:12:02;-1.20;18.40
530;DHT22;251;48.704;9.210;2023-02-28T03:14:42;-1.30;18.40
530;DHT22;251;48.704;9.210;2023-02-28T03:17:36;-1.00;18.60
530;DHT22;251;48.704;9.210;2023-02-28T03:20:15;-1.30;18.40
530;DHT22;251;48.704;9.210;2023-02-28T03:22:56;-1.20;19.10
530;DHT22;251;48.704;9.210;2023-02-28T03:25:31;-1.20;18.70
530;DHT22;251;48.704;9.210;2023-02-28T03:28:04;-1.20;19.00
530;DHT22;251;48.704;9.210;2023-02-28T03:30:36;-1.30;19.30
530;DHT22;251;48.704;9.210;2023-02-28T03:33:08;-1.30;19.00
530;DHT22;251;48.704;9.210;2023-02-28T03:35:41;-1.30;19.90
530;DHT22;251;48.704;9.210;2023-02-28T03:38:13;-1.10;19.50
530;DHT22;251;48.704;9.210;2023-02-28T03:40:45;-1.10;19.60
530;DHT22;251;48.704;9.210;2023-02-28T03:43:19;-1.30;19.70
530;DHT22;251;48.704;9.210;2023-02-28T03:45:50;-1.30;19.90
530;DHT22;251;48.704;9.210;2023-02-28T03:48:21;-1.00;19.60
530;DHT22;251;48.704;9.210;2023-02-28T03:50:53;-0.90;20.10
530;DHT22;251;48.704;9.210;2023-02-28T03:53:27;-1.10;19.70
530;DHT22;251;48.704;9.210;2023-02-28T03:55:58;-1.10;19.90
530;DHT22;251;48.704;9.210;2023-02-28T03:58:30;-0.90;20.40
530;DHT22;251;48.704;9.210;2023-02-28T04:01:02;-0.90;20.80
530;DHT22;251;48.704;9.210;2023-02-28T04:03:34;-0.90;20.00
530;DHT22;251;48.704;9.210;2023-02-28T04:06:02;-1.10;19.80
530;DHT22;251;48.704;9.210;2023-02-28T04:08:30;-1.00;19.80
530;DHT22;251;48.704;9.210;2023-02-28T04:11:02;-1.10;19.30
530;DHT22;251;48.704;9.210;2023-02-28T04:13:31;-0.80;19.90
530;DHT22;251;48.704;9.210;2023-02-28T04:15:58;-1.10;19.60
530;DHT22;251;48.704;9.210;2023-02-28T04:18:25;-0.70;20.00
530;DHT22;251;48.704;9.210;2023-02-28T04:20:52;-1.10;19.70
530;DHT22;251;48.704;9.210;2023-02-28T04:23:18;-0.90;19.90
530;DHT22;251;48.704;9.210;2023-02-28T04:25:46;-0.80;19.80
530;DHT22;251;48.704;9.210;2023-02-28T04:28:13;-1.00;19.80
530;DHT22;251;48.704;9.210;2023-02-28T04:30:40;-1.10;19.70
530;DHT22;251;48.704;9.210;2023-02-28T04:33:07;-0.80;20.10
530;DHT22;251;48.704;9.210;2023-02-28T04:35:33;-0.80;19.40
530;DHT22;251;48.704;9.210;2023-02-28T04:38:00;-1.10;20.20
530;DHT22;251;48.704;9.210;2023-02-28T04:40:27;-1.10;19.70
530;DHT22;251;48.704;9.210;2023-02-28T04:42:55;-0.90;20.10
530;DHT22;251;48.704;9.210;2023-02-28T04:45:22;-0.80;20.10
530;DHT22;251;48.704;9.210;2023-02-28T04:47:48;-0.80;20.50
530;DHT22;251;48.704;9.210;2023-02-28T04:50:15;-1.00;19.90
530;DHT22;251;48.704;9.210;2023-02-28T04:52:42;-1.00;19.90
530;DHT22;251;48.704;9.210;2023-02-28T04:55:09;-0.90;20.30
530;DHT22;251;48.704;9.210;2023-02-28T04:57:36;-0.90;20.20
530;DHT22;251;48.704;9.210;2023-02-28T05:00:05;-1.00;20.40
530;DHT22;251;48.704;9.210;2023-02-28T05:02:37;-1.00;20.40
530;DHT22;251;48.704;9.210;2023-02-28T05:05:05;-1.00;20.40
530;DHT22;251;48.704;9.210;2023-02-28T05:07:32;-0.90;20.80
530;DHT22;251;48.704;9.210;2023-02-28T05:09:58;-0.80;20.40
530;DHT22;251;48.704;9.210;2023-02-28T05:12:25;-1.00;20.20
530;DHT22;251;48.704;9.210;2023-02-28T05:14:52;-0.90;20.40
530;DHT22;251;48.704;9.210;2023-02-28T05:17:20;-1.00;20.60
530;DHT22;251;48.704;9.210;2023-02-28T05:19:47;-0.90;21.00
530;DHT22;251;48.704;9.210;2023-02-28T05:22:14;-1.10;20.80
530;DHT22;251;48.704;9.210;2023-02-28T05:24:42;-1.10;20.30
530;DHT22;251;48.704;9.210;2023-02-28T05:27:09;-1.00;20.90
530;DHT22;251;48.704;9.210;2023-02-28T05:29:36;-0.80;21.00
530;DHT22;251;48.704;9.210;2023-02-28T05:32:08;-0.80;21.40
530;DHT22;251;48.704;9.210;2023-02-28T05:34:37;-0.80;21.40
530;DHT22;251;48.704;9.210;2023-02-28T05:37:04;-1.00;21.20
530;DHT22;251;48.704;9.210;2023-02-28T05:39:32;-0.80;21.60
530;DHT22;251;48.704;9.210;2023-02-28T05:41:59;-1.10;21.30
530;DHT22;251;48.704;9.210;2023-02-28T05:44:26;-0.90;21.30
530;DHT22;251;48.704;9.210;2023-02-28T05:46:52;-1.10;21.30
530;DHT22;251;48.704;9.210;2023-02-28T05:49:19;-1.00;21.50
530;DHT22;251;48.704;9.210;2023-02-28T05:51:47;-1.10;21.10
530;DHT22;251;48.704;9.210;2023-02-28T05:54:14;-0.90;21.40
530;DHT22;251;48.704;9.210;2023-02-28T05:56:41;-1.10;21.50
530;DHT22;251;48.704;9.210;2023-02-28T05:59:09;-1.10;21.60
530;DHT22;251;48.704;9.210;2023-02-28T06:01:37;-0.70;21.50
530;DHT22;251;48.704;9.210;2023-02-28T06:04:06;-0.80;21.60
530;DHT22;251;48.704;9.210;2023-02-28T06:06:33;-1.10;21.60
530;DHT22;251;48.704;9.210;2023-02-28T06:09:03;-1.10;21.10
530;DHT22;251;48.704;9.210;2023-02-28T06:11:30;-0.80;21.90
530;DHT22;251;48.704;9.210;2023-02-28T06:13:58;-1.10;22.00
530;DHT22;251;48.704;9.210;2023-02-28T06:16:26;-0.60;21.90
530;DHT22;251;48.704;9.210;2023-02-28T06:18:53;-0.90;21.80
530;DHT22;251;48.704;9.210;2023-02-28T06:21:21;-0.60;21.90
530;DHT22;251;48.704;9.210;2023-02-28T06:23:48;-0.90;21.50
530;DHT22;251;48.704;9.210;2023-02-28T06:26:16;-1.00;21.30
530;DHT22;251;48.704;9.210;2023-02-28T06:28:43;-1.00;21.20
530;DHT22;251;48.704;9.210;2023-02-28T06:31:11;-0.90;21.50
530;DHT22;251;48.704;9.210;2023-02-28T06:33:39;-1.00;21.30
530;DHT22;251;48.704;9.210;2023-02-28T06:36:07;-0.60;22.00
530;DHT22;251;48.704;9.210;2023-02-28T06:38:35;-0.80;21.50
530;DHT22;251;48.704;9.210;2023-02-28T06:41:02;-0.90;21.00
530;DHT22;251;48.704;9.210;2023-02-28T06:43:33;-0.90;20.90
530;DHT22;251;48.704;9.210;2023-02-28T06:46:02;-0.90;21.10
530;DHT22;251;48.704;9.210;2023-02-28T06:48:30;-0.50;21.00
530;DHT22;251;48.704;9.210;2023-02-28T06:51:02;-0.90;21.00
530;DHT22;251;48.704;9.210;2023-02-28T06:53:29;-0.50;20.80
530;DHT22;251;48.704;9.210;2023-02-28T06:55:56;-0.70;20.50
530;DHT22;251;48.704;9.210;2023-02-28T06:58:23;-0.90;20.60
530;DHT22;251;48.704;9.210;2023-02-28T07:00:52;-0.60;20.30
530;DHT22;251;48.704;9.210;2023-02-28T07:03:20;-0.90;20.30
530;DHT22;251;48.704;9.210;2023-02-28T07:05:47;-0.50;20.90
530;DHT22;251;48.704;9.210;2023-02-28T07:08:14;-0.30;20.90
530;DHT22;251;48.704;9.210;2023-02-28T07:10:41;-0.50;20.90
530;DHT22;251;48.704;9.210;2023-02-28T07:13:09;-0.80;20.00
530;DHT22;251;48.704;9.210;2023-02-28T07:15:36;-0.30;20.40
530;DHT22;251;48.704;9.210;2023-02-28T07:18:04;-0.30;20.30
530;DHT22;251;48.704;9.210;2023-02-28T07:20:31;-0.70;20.10
530;DHT22;251;48.704;9.210;2023-02-28T07:22:58;-0.50;19.80
530;DHT22;251;48.704;9.210;2023-02-28T07:25:26;-0.60;20.00
530;DHT22;251;48.704;9.210;2023-02-28T07:27:53;-0.30;20.00
530;DHT22;251;48.704;9.210;2023-02-28T07:30:20;-0.30;19.90
530;DHT22;251;48.704;9.210;2023-02-28T07:32:47;-0.30;19.90
530;DHT22;251;48.704;9.210;2023-02-28T07:35:15;-0.60;20.00
530;DHT22;251;48.704;9.210;2023-02-28T07:37:42;-0.60;19.50
530;DHT22;251;48.704;9.210;2023-02-28T07:40:11;-0.30;19.60
530;DHT22;251;48.704;9.210;2023-02-28T07:42:38;-0.70;19.30
530;DHT22;251;48.704;9.210;2023-02-28T07:45:06;-0.50;19.40
530;DHT22;251;48.704;9.210;2023-02-28T07:47:33;-0.60;19.30
530;DHT22;251;48.704;9.210;2023-02-28T07:50:00;-0.60;20.00
530;DHT22;251;48.704;9.210;2023-02-28T07:52:28;-0.60;20.10
530;DHT22;251;48.704;9.210;2023-02-28T07:54:54;-0.30;19.80
530;DHT22;251;48.704;9.210;2023-02-28T07:57:22;-0.30;19.30
530;DHT22;251;48.704;9.210;2023-02-28T07:59:48;-0.30;19.40
530;DHT22;251;48.704;9.210;2023-02-28T08:02:16;-0.60;19.00
530;DHT22;251;48.704;9.210;2023-02-28T08:04:44;-0.30;19.40
530;DHT22;251;48.704;9.210;2023-02-28T08:07:12;-0.60;19.10
530;DHT22;251;48.704;9.210;2023-02-28T08:09:41;-0.30;19.10
530;DHT22;251;48.704;9.210;2023-02-28T08:12:08;-0.20;19.20
530;DHT22;251;48.704;9.210;2023-02-28T08:14:35;-0.10;19.40
530;DHT22;251;48.704;9.210;2023-02-28T08:17:02;-0.30;19.10
530;DHT22;251;48.704;9.210;2023-02-28T08:19:29;-0.10;19.50
530;DHT22;251;48.704;9.210;2023-02-28T08:21:56;-0.20;19.70
530;DHT22;251;48.704;9.210;2023-02-28T08:24:24;-0.10;19.20
530;DHT22;251;48.704;9.210;2023-02-28T08:26:52;0.00;19.20
530;DHT22;251;48.704;9.210;2023-02-28T08:29:18;-0.30;18.70
530;DHT22;251;48.704;9.210;2023-02-28T08:31:45;-0.40;18.90
530;DHT22;251;48.704;9.210;2023-02-28T08:34:14;-0.10;18.40
530;DHT22;251;48.704;9.210;2023-02-28T08:36:41;-0.10;19.00
530;DHT22;251;48.704;9.210;2023-02-28T08:39:08;-0.30;18.60
530;DHT22;251;48.704;9.210;2023-02-28T08:41:35;-0.20;18.80
530;DHT22;251;48.704;9.210;2023-02-28T08:44:03;-0.10;19.50
530;DHT22;251;48.704;9.210;2023-02-28T08:46:30;-0.20;19.00
530;DHT22;251;48.704;9.210;2023-02-28T08:48:57;-0.10;19.10
530;DHT22;251;48.704;9.210;2023-02-28T08:51:27;0.20;19.40
530;DHT22;251;48.704;9.210;2023-02-28T08:53:55;0.10;19.40
530;DHT22;251;48.704;9.210;2023-02-28T08:56:22;-0.10;18.70
530;DHT22;251;48.704;9.210;2023-02-28T08:58:50;0.10;18.40
530;DHT22;251;48.704;9.210;2023-02-28T09:01:19;0.10;18.60
530;DHT22;251;48.704;9.210;2023-02-28T09:03:48;-0.10;18.40
530;DHT22;251;48.704;9.210;2023-02-28T09:06:16;0.20;18.80
530;DHT22;251;48.704;9.210;2023-02-28T09:08:44;0.10;19.00
530;DHT22;251;48.704;9.210;2023-02-28T09:11:11;-0.10;18.60
530;DHT22;251;48.704;9.210;2023-02-28T09:13:39;0.10;18.50
530;DHT22;251;48.704;9.210;2023-02-28T09:16:07;0.20;18.30
530;DHT22;251;48.704;9.210;2023-02-28T09:18:36;0.10;18.70
530;DHT22;251;48.704;9.210;2023-02-28T09:21:04;0.10;18.60
530;DHT22;251;48.704;9.210;2023-02-28T09:23:31;0.10;18.30
530;DHT22;251;48.704;9.210;2023-02-28T09:25:58;0.20;18.00
530;DHT22;251;48.704;9.210;2023-02-28T09:28:25;0.20;18.50
530;DHT22;251;48.704;9.210;2023-02-28T09:30:54;0.30;18.50
530;DHT22;251;48.704;9.210;2023-02-28T09:33:22;0.10;18.20
530;DHT22;251;48.704;9.210;2023-02-28T09:35:50;0.30;18.80
530;DHT22;251;48.704;9.210;2023-02-28T09:38:18;0.40;18.50
530;DHT22;251;48.704;9.210;2023-02-28T09:40:48;0.20;17.90
530;DHT22;251;48.704;9.210;2023-02-28T09:43:16;0.40;18.20
530;DHT22;251;48.704;9.210;2023-02-28T09:45:47;0.40;17.70
530;DHT22;251;48.704;9.210;2023-02-28T09:48:19;0.40;18.00
530;DHT22;251;48.704;9.210;2023-02-28T09:50:51;0.40;18.20
530;DHT22;251;48.704;9.210;2023-02-28T09:53:22;0.40;18.10
530;DHT22;251;48.704;9.210;2023-02-28T09:55:55;0.20;18.40
530;DHT22;251;48.704;9.210;2023-02-28T09:58:28;0.40;18.30
530;DHT22;251;48.704;9.210;2023-02-28T10:01:01;0.60;17.60
530;DHT22;251;48.704;9.210;2023-02-28T10:03:33;0.60;17.70
530;DHT22;251;48.704;9.210;2023-02-28T10:06:07;0.70;17.00
530;DHT22;251;48.704;9.210;2023-02-28T10:08:37;0.40;16.60
530;DHT22;251;48.704;9.210;2023-02-28T10:11:11;0.60;16.70
530;DHT22;251;48.704;9.210;2023-02-28T10:13:50;0.80;16.90
530;DHT22;251;48.704;9.210;2023-02-28T10:16:23;0.80;16.50
530;DHT22;251;48.704;9.210;2023-02-28T10:18:54;0.90;16.10
530;DHT22;251;48.704;9.210;2023-02-28T10:21:27;0.80;16.30
530;DHT22;251;48.704;9.210;2023-02-28T10:24:02;0.70;16.00
530;DHT22;251;48.704;9.210;2023-02-28T10:26:31;0.60;15.10
530;DHT22;251;48.704;9.210;2023-02-28T10:28:58;1.00;15.40
530;DHT22;251;48.704;9.210;2023-02-28T10:31:25;0.90;15.80
530;DHT22;251;48.704;9.210;2023-02-28T10:33:52;1.10;15.00
530;DHT22;251;48.704;9.210;2023-02-28T10:36:20;1.20;15.20
530;DHT22;251;48.704;9.210;2023-02-28T10:38:49;1.00;15.50
530;DHT22;251;48.704;9.210;2023-02-28T10:41:27;1.00;15.10
530;DHT22;251;48.704;9.210;2023-02-28T10:44:13;0.90;14.70
530;DHT22;251;48.704;9.210;2023-02-28T10:46:41;1.10;14.90
530;DHT22;251;48.704;9.210;2023-02-28T10:49:14;1.10;15.10
530;DHT22;251;48.704;9.210;2023-02-28T10:51:41;1.30;15.20
530;DHT22;251;48.704;9.210;2023-02-28T10:54:18;1.40;15.40
530;DHT22;251;48.704;9.210;2023-02-28T10:56:45;1.30;14.70
530;DHT22;251;48.704;9.210;2023-02-28T10:59:29;1.20;14.40
530;DHT22;251;48.704;9.210;2023-02-28T11:01:57;1.40;14.40
530;DHT22;251;48.704;9.210;2023-02-28T11:04:35;1.50;14.70
530;DHT22;251;48.704;9.210;2023-02-28T11:07:10;1.50;14.40
530;DHT22;251;48.704;9.210;2023-02-28T11:09:46;1.50;14.70
530;DHT22;251;48.704;9.210;2023-02-28T11:12:21;1.50;13.90
530;DHT22;251;48.704;9.210;2023-02-28T11:14:52;1.50;13.80
530;DHT22;251;48.704;9.210;2023-02-28T11:17:21;1.70;13.80
530;DHT22;251;48.704;9.210;2023-02-28T11:19:52;1.70;13.90
530;DHT22;251;48.704;9.210;2023-02-28T11:22:21;2.00;13.50
530;DHT22;251;48.704;9.210;2023-02-28T11:24:53;2.20;13.60
530;DHT22;251;48.704;9.210;2023-02-28T11:27:26;2.60;12.20
530;DHT22;251;48.704;9.210;2023-02-28T11:30:32;2.80;12.30
530;DHT22;251;48.704;9.210;2023-02-28T11:33:00;3.00;11.50
530;DHT22;251;48.704;9.210;2023-02-28T11:35:31;3.30;11.80
530;DHT22;251;48.704;9.210;2023-02-28T11:38:00;3.30;11.70
530;DHT22;251;48.704;9.210;2023-02-28T11:40:38;3.50;12.50
530;DHT22;251;48.704;9.210;2023-02-28T11:43:20;3.60;11.70
530;DHT22;251;48.704;9.210;2023-02-28T11:46:03;3.40;11.70
530;DHT22;251;48.704;9.210;2023-02-28T11:48:41;3.80;9.80
530;DHT22;251;48.704;9.210;2023-02-28T11:51:15;3.80;10.50
530;DHT22;251;48.704;9.210;2023-02-28T11:54:25;3.80;9.90
530;DHT22;251;48.704;9.210;2023-02-28T11:57:00;3.70;8.60
530;DHT22;251;48.704;9.210;2023-02-28T11:59:36;4.10;10.00
530;DHT22;251;48.704;9.210;2023-02-28T12:02:23;4.30;10.00
530;DHT22;251;48.704;9.210;2023-02-28T12:05:05;4.10;9.50
530;DHT22;251;48.704;9.210;2023-02-28T12:07:41;4.20;9.80
530;DHT22;251;48.704;9.210;2023-02-28T12:10:20;4.60;10.10
530;DHT22;251;48.704;9.210;2023-02-28T12:12:58;4.40;9.30
530;DHT22;251;48.704;9.210;2023-02-28T12:15:55;4.40;7.90
530;DHT22;251;48.704;9.210;2023-02-28T12:21:32;4.80;8.50
530;DHT22;251;48.704;9.210;2023-02-28T12:24:25;4.70;7.30
530;DHT22;251;48.704;9.210;2023-02-28T12:26:55;4.90;7.70
530;DHT22;251;48.704;9.210;2023-02-28T12:29:29;4.90;7.80
530;DHT22;251;48.704;9.210;2023-02-28T12:32:00;5.00;7.50
530;DHT22;251;48.704;9.210;2023-02-28T12:34:32;4.80;6.80
530;DHT22;251;48.704;9.210;2023-02-28T12:37:03;4.70;6.80
530;DHT22;251;48.704;9.210;2023-02-28T12:39:35;4.80;7.10
530;DHT22;251;48.704;9.210;2023-02-28T12:42:07;4.70;6.60
530;DHT22;251;48.704;9.210;2023-02-28T12:44:42;4.70;6.70
530;DHT22;251;48.704;9.210;2023-02-28T12:47:14;4.60;7.60
530;DHT22;251;48.704;9.210;2023-02-28T12:49:45;4.40;7.40
530;DHT22;251;48.704;9.210;2023-02-28T12:52:14;4.70;7.20
530;DHT22;251;48.704;9.210;2023-02-28T12:54:48;4.80;6.80
530;DHT22;251;48.704;9.210;2023-02-28T12:57:22;4.60;7.00
530;DHT22;251;48.704;9.210;2023-02-28T12:59:55;4.70;7.30
530;DHT22;251;48.704;9.210;2023-02-28T13:02:53;4.70;6.80
530;DHT22;251;48.704;9.210;2023-02-28T13:05:32;4.70;7.00
530;DHT22;251;48.704;9.210;2023-02-28T13:08:20;5.10;7.20
530;DHT22;251;48.704;9.210;2023-02-28T13:10:51;4.80;7.50
530;DHT22;251;48.704;9.210;2023-02-28T13:13:22;4.70;6.90
530;DHT22;251;48.704;9.210;2023-02-28T13:16:04;4.70;6.80
530;DHT22;251;48.704;9.210;2023-02-28T13:18:36;4.70;7.90
530;DHT22;251;48.704;9.210;2023-02-28T13:21:06;4.90;7.80
530;DHT22;251;48.704;9.210;2023-02-28T13:23:59;4.80;7.50
530;DHT22;251;48.704;9.210;2023-02-28T13:29:31;4.70;7.30
530;DHT22;251;48.704;9.210;2023-02-28T13:32:25;4.70;7.40
530;DHT22;251;48.704;9.210;2023-02-28T13:35:14;4.60;8.30
530;DHT22;251;48.704;9.210;2023-02-28T13:37:45;4.60;8.20
530;DHT22;251;48.704;9.210;2023-02-28T13:40:32;4.70;7.00
530;DHT22;251;48.704;9.210;2023-02-28T13:43:06;4.80;7.10
530;DHT22;251;48.704;9.210;2023-02-28T13:45:33;4.70;7.70
530;DHT22;251;48.704;9.210;2023-02-28T13:48:14;4.60;6.70
530;DHT22;251;48.704;9.210;2023-02-28T13:50:43;4.60;7.00
530;DHT22;251;48.704;9.210;2023-02-28T13:53:53;4.60;6.20
530;DHT22;251;48.704;9.210;2023-02-28T13:56:33;4.70;7.10
530;DHT22;251;48.704;9.210;2023-02-28T13:59:08;4.70;7.60
530;DHT22;251;48.704;9.210;2023-02-28T14:01:51;4.70;7.40
530;DHT22;251;48.704;9.210;2023-02-28T14:04:43;4.50;7.60
530;DHT22;251;48.704;9.210;2023-02-28T14:07:18;4.70;7.00
530;DHT22;251;48.704;9.210;2023-02-28T14:09:50;4.60;7.60
530;DHT22;251;48.704;9.210;2023-02-28T14:13:00;4.70;7.40
530;DHT22;251;48.704;9.210;2023-02-28T14:15:43;4.60;8.40
530;DHT22;251;48.704;9.210;2023-02-28T14:18:29;4.60;8.10
530;DHT22;251;48.704;9.210;2023-02-28T14:21:10;4.90;8.10
530;DHT22;251;48.704;9.210;2023-02-28T14:24:11;4.70;8.60
530;DHT22;251;48.704;9.210;2023-02-28T14:27:02;4.70;8.00
530;DHT22;251;48.704;9.210;2023-02-28T14:29:41;4.80;7.80
530;DHT22;251;48.704;9.210;2023-02-28T14:32:15;4.70;7.30
530;DHT22;251;48.704;9.210;2023-02-28T14:34:50;4.70;7.30
530;DHT22;251;48.704;9.210;2023-02-28T14:37:25;4.60;7.90
530;DHT22;251;48.704;9.210;2023-02-28T14:39:53;4.70;7.60
530;DHT22;251;48.704;9.210;2023-02-28T14:42:32;5.00;7.90
530;DHT22;251;48.704;9.210;2023-02-28T14:44:59;4.80;8.00
530;DHT22;251;48.704;9.210;2023-02-28T14:47:30;4.70;7.00
530;DHT22;251;48.704;9.210;2023-02-28T14:49:59;5.10;7.80
530;DHT22;251;48.704;9.210;2023-02-28T14:52:29;4.70;7.30
530;DHT22;251;48.704;9.210;2023-02-28T14:55:01;4.90;7.50
530;DHT22;251;48.704;9.210;2023-02-28T14:57:31;5.00;7.40
530;DHT22;251;48.704;9.210;2023-02-28T15:00:00;5.00;6.80
530;DHT22;251;48.704;9.210;2023-02-28T15:02:30;5.00;7.10
530;DHT22;251;48.704;9.210;2023-02-28T15:04:59;5.20;6.80
530;DHT22;251;48.704;9.210;2023-02-28T15:07:28;4.90;6.60
530;DHT22;251;48.704;9.210;2023-02-28T15:10:09;4.90;7.20
530;DHT22;251;48.704;9.210;2023-02-28T15:12:37;5.00;7.30
530;DHT22;251;48.704;9.210;2023-02-28T15:15:06;4.70;8.00
530;DHT22;251;48.704;9.210;2023-02-28T15:17:34;4.90;7.10
530;DHT22;251;48.704;9.210;2023-02-28T15:20:01;5.00;7.00
530;DHT22;251;48.704;9.210;2023-02-28T15:22:34;5.00;7.10
530;DHT22;251;48.704;9.210;2023-02-28T15:25:03;4.90;6.70
530;DHT22;251;48.704;9.210;2023-02-28T15:27:32;4.90;6.40
530;DHT22;251;48.704;9.210;2023-02-28T15:30:05;4.90;7.30
530;DHT22;251;48.704;9.210;2023-02-28T15:32:33;4.90;7.30
530;DHT22;251;48.704;9.210;2023-02-28T15:35:19;4.90;7.00
530;DHT22;251;48.704;9.210;2023-02-28T15:37:53;4.90;7.30
530;DHT22;251;48.704;9.210;2023-02-28T15:40:23;5.40;6.00
530;DHT22;251;48.704;9.210;2023-02-28T15:43:06;5.10;6.40
530;DHT22;251;48.704;9.210;2023-02-28T15:45:38;5.00;6.00
530;DHT22;251;48.704;9.210;2023-02-28T15:48:16;5.00;6.10
530;DHT22;251;48.704;9.210;2023-02-28T15:50:44;5.00;5.70
530;DHT22;251;48.704;9.210;2023-02-28T15:53:19;5.30;6.30
530;DHT22;251;48.704;9.210;2023-02-28T15:55:53;4.90;6.80
530;DHT22;251;48.704;9.210;2023-02-28T15:58:22;5.00;7.30
530;DHT22;251;48.704;9.210;2023-02-28T16:01:01;4.90;7.30
530;DHT22;251;48.704;9.210;2023-02-28T16:03:41;5.00;6.80
530;DHT22;251;48.704;9.210;2023-02-28T16:06:32;5.00;7.60
530;DHT22;251;48.704;9.210;2023-02-28T16:09:01;4.90;6.90
530;DHT22;251;48.704;9.210;2023-02-28T16:11:28;5.00;6.90
530;DHT22;251;48.704;9.210;2023-02-28T16:13:56;4.90;6.90
530;DHT22;251;48.704;9.210;2023-02-28T16:16:24;4.70;6.90
530;DHT22;251;48.704;9.210;2023-02-28T16:18:53;4.70;7.40
530;DHT22;251;48.704;9.210;2023-02-28T16:21:20;4.70;7.40
530;DHT22;251;48.704;9.210;2023-02-28T16:23:47;4.70;7.20
530;DHT22;251;48.704;9.210;2023-02-28T16:26:19;4.60;8.20
530;DHT22;251;48.704;9.210;2023-02-28T16:28:47;4.70;7.80
530;DHT22;251;48.704;9.210;2023-02-28T16:31:15;4.70;8.10
530;DHT22;251;48.704;9.210;2023-02-28T16:33:42;4.40;7.70
530;DHT22;251;48.704;9.210;2023-02-28T16:36:13;4.40;8.40
530;DHT22;251;48.704;9.210;2023-02-28T16:38:39;4.40;8.60
530;DHT22;251;48.704;9.210;2023-02-28T16:41:06;4.30;8.20
530;DHT22;251;48.704;9.210;2023-02-28T16:43:34;4.40;8.40
530;DHT22;251;48.704;9.210;2023-02-28T16:46:01;4.40;8.60
530;DHT22;251;48.704;9.210;2023-02-28T16:48:29;4.40;8.40
530;DHT22;251;48.704;9.210;2023-02-28T16:50:56;4.40;8.60
530;DHT22;251;48.704;9.210;2023-02-28T16:53:22;4.30;9.10
530;DHT22;251;48.704;9.210;2023-02-28T16:55:49;4.10;9.10
530;DHT22;251;48.704;9.210;2023-02-28T16:58:17;4.00;9.30
530;DHT22;251;48.704;9.210;2023-02-28T17:00:48;4.10;8.70
530;DHT22;251;48.704;9.210;2023-02-28T17:03:22;4.10;9.40
530;DHT22;251;48.704;9.210;2023-02-28T17:05:49;4.20;9.30
530;DHT22;251;48.704;9.210;2023-02-28T17:08:17;4.20;9.60
530;DHT22;251;48.704;9.210;2023-02-28T17:10:43;4.10;9.30
530;DHT22;251;48.704;9.210;2023-02-28T17:13:10;4.00;9.50
530;DHT22;251;48.704;9.210;2023-02-28T17:15:37;3.90;9.70
530;DHT22;251;48.704;9.210;2023-02-28T17:18:09;3.90;9.80
530;DHT22;251;48.704;9.210;2023-02-28T17:20:38;3.70;9.40
530;DHT22;251;48.704;9.210;2023-02-28T17:23:07;3.60;9.90
530;DHT22;251;48.704;9.210;2023-02-28T17:25:34;3.80;10.60
530;DHT22;251;48.704;9.210;2023-02-28T17:28:01;3.90;10.20